Time;durP1;ratioP1;P1;durP2;ratioP2;P2;SDS_P1;SDS_P2;PMS_P1;PMS_P2;Temp;Humidity;BMP_temperature;BMP_pressure;BME280_temperature;BME280_humidity;BME280_pressure;Samples;Min_cycle;Max_cycle;Signal;HPM_P1;HPM_P2
2023/07/09 00:02:24;;;;;;;1999.90;999.90;;;20.60;99.90;;;;;;5036353;28;20037;-67
2023/07/09 00:04:50;;;;;;;1999.90;999.90;;;20.60;99.90;;;;;;5019251;28;20771;-67
2023/07/09 00:07:30;;;;;;;1999.90;999.90;;;20.50;99.90;;;;;;5036204;28;20045;-68
2023/07/09 00:09:56;;;;;;;1999.90;999.90;;;20.40;99.90;;;;;;5019725;28;20125;-67
2023/07/09 00:12:22;;;;;;;1999.90;999.90;;;20.40;99.90;;;;;;5021014;28;20056;-67
2023/07/09 00:14:48;;;;;;;1999.90;999.90;;;20.40;99.90;;;;;;5019975;28;20033;-67
2023/07/09 00:17:31;;;;;;;1999.90;999.90;;;20.30;99.90;;;;;;5011009;28;20041;-67
2023/07/09 00:19:57;;;;;;;1999.90;999.90;;;20.30;99.90;;;;;;5022963;28;20128;-67
2023/07/09 00:22:23;;;;;;;1999.90;999.90;;;20.30;99.90;;;;;;5018952;28;20049;-67
2023/07/09 00:24:52;;;;;;;1999.90;999.90;;;20.30;99.90;;;;;;5004100;28;20048;-67
2023/07/09 00:27:20;;;;;;;1999.90;999.90;;;20.20;99.90;;;;;;5013124;28;20041;-67
2023/07/09 00:29:45;;;;;;;1999.90;999.90;;;20.30;99.90;;;;;;5019579;28;20115;-67
2023/07/09 00:32:16;;;;;;;1999.90;999.90;;;20.20;99.90;;;;;;5016630;28;20128;-67
2023/07/09 00:34:51;;;;;;;1999.90;999.90;;;20.30;99.90;;;;;;5014172;28;20045;-67
2023/07/09 00:37:19;;;;;;;1999.90;999.90;;;20.20;99.90;;;;;;5022836;28;20393;-67
2023/07/09 00:39:46;;;;;;;1999.90;999.90;;;20.20;99.90;;;;;;5020823;28;20041;-67
2023/07/09 00:42:23;;;;;;;1999.90;999.90;;;20.20;99.90;;;;;;5025202;28;20124;-67
2023/07/09 00:44:54;;;;;;;1999.90;999.90;;;20.20;99.90;;;;;;5039210;28;20060;-67
2023/07/09 00:47:42;;;;;;;1999.90;999.90;;;20.20;99.90;;;;;;5023390;28;20045;-67
2023/07/09 00:50:17;;;;;;;1999.90;999.90;;;20.20;99.90;;;;;;5012803;28;20119;-67
2023/07/09 00:52:53;;;;;;;1999.90;999.90;;;20.30;99.90;;;;;;5023681;28;20055;-67
2023/07/09 00:55:27;;;;;;;1999.90;999.90;;;20.30;99.90;;;;;;5024325;28;20037;-67
2023/07/09 00:57:58;;;;;;;1999.90;999.90;;;20.40;99.90;;;;;;5020829;28;20092;-67
2023/07/09 01:00:30;;;;;;;1999.90;999.90;;;20.40;99.90;;;;;;5014955;28;20052;-67
2023/07/09 01:02:58;;;;;;;1999.90;999.90;;;20.40;99.90;;;;;;5038531;28;20041;-67
2023/07/09 01:05:23;;;;;;;1999.90;999.90;;;20.40;99.90;;;;;;5023929;28;20106;-67
2023/07/09 01:07:50;;;;;;;1999.90;999.90;;;20.40;99.90;;;;;;5021737;28;20068;-67
2023/07/09 01:10:18;;;;;;;1999.90;999.90;;;20.40;99.90;;;;;;5023827;28;20049;-67
2023/07/09 01:12:45;;;;;;;1999.90;999.90;;;20.30;99.90;;;;;;5022309;28;20068;-67
2023/07/09 01:15:12;;;;;;;1999.90;999.90;;;20.30;99.90;;;;;;5024036;28;20594;-67
2023/07/09 01:17:37;;;;;;;1999.90;999.90;;;20.30;99.90;;;;;;5011524;28;21702;-67
2023/07/09 01:20:07;;;;;;;1999.90;999.90;;;20.20;99.90;;;;;;5038364;28;20048;-67
2023/07/09 01:22:33;;;;;;;1999.90;999.90;;;20.20;99.90;;;;;;5019829;28;20056;-67
2023/07/09 01:25:06;;;;;;;1999.90;999.90;;;20.10;99.90;;;;;;5003049;28;20041;-67
2023/07/09 01:27:41;;;;;;;1999.90;999.90;;;20.10;99.90;;;;;;5014244;28;20771;-67
2023/07/09 01:30:11;;;;;;;1999.90;999.90;;;20.00;99.90;;;;;;5020783;28;20555;-67
2023/07/09 01:32:38;;;;;;;1999.90;999.90;;;20.00;99.90;;;;;;5019547;28;20041;-67
2023/07/09 01:35:06;;;;;;;1999.90;999.90;;;19.90;99.90;;;;;;5021436;28;20148;-67
2023/07/09 01:37:36;;;;;;;1999.90;999.90;;;19.90;99.90;;;;;;5019470;28;20486;-67
2023/07/09 01:40:09;;;;;;;1999.90;999.90;;;19.80;99.90;;;;;;5022474;28;20056;-67
2023/07/09 01:42:38;;;;;;;1999.90;999.90;;;19.70;99.90;;;;;;5022790;28;20172;-67
2023/07/09 01:45:05;;;;;;;1999.90;999.90;;;19.60;99.90;;;;;;5015746;28;20116;-67
2023/07/09 01:47:31;;;;;;;1999.90;999.90;;;19.60;99.90;;;;;;5021331;28;20094;-67
2023/07/09 01:49:57;;;;;;;1999.90;999.90;;;19.50;99.90;;;;;;5034825;28;20490;-67
2023/07/09 01:52:29;;;;;;;1999.90;999.90;;;19.40;99.90;;;;;;5023396;28;20033;-67
2023/07/09 01:54:55;;;;;;;1999.90;999.90;;;19.30;99.90;;;;;;5037040;28;20041;-67
2023/07/09 01:57:32;;;;;;;1999.90;999.90;;;19.30;99.90;;;;;;5005559;28;20037;-67
2023/07/09 01:59:59;;;;;;;1999.90;999.90;;;19.20;99.90;;;;;;5015957;28;20144;-67
2023/07/09 02:02:25;;;;;;;1999.90;999.90;;;19.10;99.90;;;;;;5014734;28;20053;-67
2023/07/09 02:04:53;;;;;;;1999.90;999.90;;;19.10;99.90;;;;;;5022906;28;20037;-67
2023/07/09 02:07:20;;;;;;;1999.90;999.90;;;19.00;99.90;;;;;;5023076;28;20045;-67
2023/07/09 02:09:46;;;;;;;1999.90;999.90;;;19.00;99.90;;;;;;5020600;28;20051;-67
2023/07/09 02:12:13;;;;;;;1999.90;999.90;;;18.90;99.90;;;;;;5013484;28;20576;-67
2023/07/09 02:14:40;;;;;;;1999.90;999.90;;;18.80;99.90;;;;;;5021644;28;20117;-67
2023/07/09 02:17:07;;;;;;;1999.90;999.90;;;18.80;99.90;;;;;;5036967;28;20081;-67
2023/07/09 02:19:33;;;;;;;1999.90;999.90;;;18.80;99.90;;;;;;5019166;28;20050;-67
2023/07/09 02:21:59;;;;;;;1999.90;999.90;;;18.80;99.90;;;;;;5024171;28;20052;-67
2023/07/09 02:24:26;;;;;;;1999.90;999.90;;;18.70;99.90;;;;;;5022262;28;20048;-67
2023/07/09 02:26:53;;;;;;;1999.90;999.90;;;18.70;99.90;;;;;;5020259;28;20084;-67
2023/07/09 02:29:18;;;;;;;1999.90;999.90;;;18.70;99.90;;;;;;5014969;28;20143;-67
2023/07/09 02:31:45;;;;;;;1999.90;999.90;;;18.70;99.90;;;;;;5020199;28;20037;-67
2023/07/09 02:34:11;;;;;;;1999.90;999.90;;;18.60;99.90;;;;;;5022187;28;20052;-67
2023/07/09 02:36:37;;;;;;;1999.90;999.90;;;18.50;99.90;;;;;;5024587;28;20037;-67
2023/07/09 02:39:03;;;;;;;1999.90;999.90;;;18.50;99.90;;;;;;5023366;28;20045;-67
2023/07/09 02:41:28;;;;;;;1999.90;999.90;;;18.50;99.90;;;;;;5023917;28;20034;-67
2023/07/09 02:43:54;;;;;;;1999.90;999.90;;;18.40;99.90;;;;;;5019477;28;20046;-67
2023/07/09 02:46:20;;;;;;;1999.90;999.90;;;18.40;99.90;;;;;;5015834;28;20042;-67
2023/07/09 02:48:45;;;;;;;1999.90;999.90;;;18.40;99.90;;;;;;5021338;28;20490;-67
2023/07/09 02:51:11;;;;;;;1999.90;999.90;;;18.40;99.90;;;;;;5023347;28;20477;-67
2023/07/09 02:53:36;;;;;;;1999.90;999.90;;;18.40;99.90;;;;;;5021067;28;20102;-67
2023/07/09 02:56:02;;;;;;;1999.90;999.90;;;18.40;99.90;;;;;;5021523;28;20820;-67
2023/07/09 02:58:28;;;;;;;1999.90;999.90;;;18.40;99.90;;;;;;5035164;28;20107;-67
2023/07/09 03:00:53;;;;;;;1999.90;999.90;;;18.40;99.90;;;;;;5022612;28;20045;-67
2023/07/09 03:03:20;;;;;;;1999.90;999.90;;;18.30;99.90;;;;;;5030387;28;20033;-67
2023/07/09 03:05:47;;;;;;;1999.90;999.90;;;18.30;99.90;;;;;;5019061;28;20132;-67
2023/07/09 03:08:14;;;;;;;1999.90;999.90;;;18.30;99.90;;;;;;5022023;28;20041;-67
2023/07/09 03:10:40;;;;;;;1999.90;999.90;;;18.30;99.90;;;;;;5021089;28;20702;-67
2023/07/09 03:13:05;;;;;;;1999.90;999.90;;;18.30;99.90;;;;;;5018685;28;20083;-67
2023/07/09 03:15:31;;;;;;;1999.90;999.90;;;18.30;99.90;;;;;;5019870;28;20048;-67
2023/07/09 03:17:57;;;;;;;1999.90;999.90;;;18.20;99.90;;;;;;5021490;28;20504;-67
2023/07/09 03:20:23;;;;;;;1999.90;999.90;;;18.30;99.90;;;;;;5029459;28;20037;-67
2023/07/09 03:22:49;;;;;;;1999.90;999.90;;;18.30;99.90;;;;;;5021293;28;20663;-67
2023/07/09 03:25:14;;;;;;;1999.90;999.90;;;18.30;99.90;;;;;;5019781;28;20075;-67
2023/07/09 03:27:40;;;;;;;1999.90;999.90;;;18.30;99.90;;;;;;5021967;28;20508;-67
2023/07/09 03:30:06;;;;;;;1999.90;999.90;;;18.30;99.90;;;;;;5018644;28;20157;-67
2023/07/09 03:32:32;;;;;;;1999.90;999.90;;;18.30;99.90;;;;;;5035742;28;20048;-67
2023/07/09 03:34:57;;;;;;;1999.90;999.90;;;18.30;99.90;;;;;;5019137;28;20037;-67
2023/07/09 03:37:23;;;;;;;1999.90;999.90;;;18.30;99.90;;;;;;5014340;28;20299;-67
2023/07/09 03:39:49;;;;;;;1999.90;999.90;;;18.30;99.90;;;;;;5018189;28;20088;-67
2023/07/09 03:42:14;;;;;;;1999.90;999.90;;;18.30;99.90;;;;;;5022349;28;20220;-67
2023/07/09 03:44:40;;;;;;;1999.90;999.90;;;18.40;99.90;;;;;;5019309;28;20056;-67
2023/07/09 03:47:06;;;;;;;1999.90;999.90;;;18.40;99.90;;;;;;5020471;28;20131;-67
2023/07/09 03:49:33;;;;;;;1999.90;999.90;;;18.40;99.90;;;;;;5022388;28;20045;-67
2023/07/09 03:51:58;;;;;;;1999.90;999.90;;;18.40;99.90;;;;;;5021140;28;20038;-67
2023/07/09 03:54:24;;;;;;;1999.90;999.90;;;18.50;99.90;;;;;;5019216;28;20045;-67
2023/07/09 03:56:50;;;;;;;1999.90;999.90;;;18.50;99.90;;;;;;5029086;28;20571;-67
2023/07/09 03:59:15;;;;;;;1999.90;999.90;;;18.50;99.90;;;;;;5020912;28;20508;-67
2023/07/09 04:01:46;;;;;;;1999.90;999.90;;;18.60;99.90;;;;;;5021135;28;20528;-67
2023/07/09 04:04:14;;;;;;;1999.90;999.90;;;18.60;99.90;;;;;;5019186;28;20060;-67
2023/07/09 04:06:40;;;;;;;1999.90;999.90;;;18.70;99.90;;;;;;5033661;28;20528;-67
2023/07/09 04:09:06;;;;;;;1999.90;999.90;;;18.70;99.90;;;;;;5020148;28;20037;-67
2023/07/09 04:11:32;;;;;;;1999.90;999.90;;;18.70;99.90;;;;;;5018052;28;20045;-67
2023/07/09 04:13:58;;;;;;;1999.90;999.90;;;18.80;99.90;;;;;;5009889;28;20409;-67
2023/07/09 04:16:23;;;;;;;1999.90;999.90;;;18.80;99.90;;;;;;5019370;28;20065;-67
2023/07/09 04:18:49;;;;;;;1999.90;999.90;;;18.90;99.90;;;;;;5020085;28;20037;-67
2023/07/09 04:21:15;;;;;;;1999.90;999.90;;;18.90;99.90;;;;;;5021318;28;20045;-67
2023/07/09 04:23:40;;;;;;;1999.90;999.90;;;19.00;99.90;;;;;;5020569;28;20075;-67
2023/07/09 04:26:08;;;;;;;1999.90;999.90;;;19.10;99.90;;;;;;5020268;28;20476;-67
2023/07/09 04:28:34;;;;;;;1999.90;999.90;;;19.10;99.90;;;;;;4995348;28;20251;-67
2023/07/09 04:31:00;;;;;;;1999.90;999.90;;;19.20;99.90;;;;;;5017408;28;20478;-67
2023/07/09 04:33:26;;;;;;;1999.90;999.90;;;19.30;99.90;;;;;;5033753;28;20100;-67
2023/07/09 04:35:51;;;;;;;1999.90;999.90;;;19.30;99.90;;;;;;5019017;28;20037;-67
2023/07/09 04:38:17;;;;;;;1999.90;999.90;;;19.40;99.90;;;;;;5018903;28;20148;-67
2023/07/09 04:40:43;;;;;;;1999.90;999.90;;;19.50;99.90;;;;;;5022667;28;20077;-67
2023/07/09 04:43:09;;;;;;;1999.90;999.90;;;19.60;99.90;;;;;;5020020;28;20057;-67
2023/07/09 04:45:35;;;;;;;1999.90;999.90;;;19.70;99.90;;;;;;5026598;28;20775;-67
2023/07/09 04:48:01;;;;;;;1999.90;999.90;;;19.80;99.90;;;;;;5002302;28;20831;-67
2023/07/09 04:50:26;;;;;;;1999.90;999.90;;;19.90;99.90;;;;;;5020717;28;20143;-67
2023/07/09 04:52:52;;;;;;;1999.90;999.90;;;19.90;99.90;;;;;;5004028;28;20819;-67
2023/07/09 04:55:18;;;;;;;1999.90;999.90;;;20.00;99.90;;;;;;5034432;28;20649;-67
2023/07/09 04:57:45;;;;;;;1999.90;999.90;;;20.10;99.90;;;;;;5003668;28;20420;-67
2023/07/09 05:00:11;;;;;;;1999.90;999.90;;;20.20;99.90;;;;;;5019168;28;20045;-67
2023/07/09 05:02:36;;;;;;;1999.90;999.90;;;20.30;99.90;;;;;;5010820;28;20049;-67
2023/07/09 05:05:03;;;;;;;1999.90;999.90;;;20.40;99.90;;;;;;5019418;28;20498;-68
2023/07/09 05:07:28;;;;;;;1999.90;999.90;;;20.50;99.90;;;;;;5020768;28;20049;-67
2023/07/09 05:09:54;;;;;;;1999.90;999.90;;;20.60;99.90;;;;;;5018765;28;20700;-67
2023/07/09 05:12:20;;;;;;;1999.90;999.90;;;20.60;99.90;;;;;;5023415;28;20033;-67
2023/07/09 05:14:46;;;;;;;1999.90;999.90;;;20.70;99.90;;;;;;5023374;28;20052;-67
2023/07/09 05:17:12;;;;;;;1999.90;999.90;;;20.90;99.90;;;;;;5021371;28;20045;-67
2023/07/09 05:19:38;;;;;;;1277.95;953.30;;;20.90;99.90;;;;;;5016335;28;20866;-67
2023/07/09 05:22:04;;;;;;;1999.90;999.90;;;21.10;99.90;;;;;;5025347;28;20397;-68
2023/07/09 05:24:30;;;;;;;1999.90;999.90;;;21.20;99.90;;;;;;5021437;28;20045;-67
2023/07/09 05:26:55;;;;;;;1765.30;987.33;;;21.30;99.90;;;;;;5024164;28;20485;-67
2023/07/09 05:29:22;;;;;;;1050.93;946.67;;;21.50;99.90;;;;;;5017769;28;20089;-67
2023/07/09 05:31:47;;;;;;;1004.75;913.72;;;21.60;99.90;;;;;;5022635;28;20126;-67
2023/07/09 05:34:13;;;;;;;1031.35;932.03;;;21.70;99.90;;;;;;5023199;28;20401;-67
2023/07/09 05:36:39;;;;;;;1057.13;950.35;;;21.80;99.90;;;;;;5009359;28;20043;-67
2023/07/09 05:39:05;;;;;;;1001.38;913.33;;;21.90;99.90;;;;;;5039197;28;20087;-67
2023/07/09 05:41:30;;;;;;;928.00;856.97;;;22.10;99.90;;;;;;5022350;28;20041;-67
2023/07/09 05:43:56;;;;;;;980.88;898.10;;;22.20;99.90;;;;;;5013864;28;20049;-68
2023/07/09 05:46:23;;;;;;;933.13;856.15;;;22.30;99.90;;;;;;5022509;28;20040;-67
2023/07/09 05:48:49;;;;;;;956.92;876.50;;;22.50;99.90;;;;;;5018509;28;20051;-67
2023/07/09 05:51:14;;;;;;;957.10;880.17;;;22.60;99.90;;;;;;5020264;28;20431;-67
2023/07/09 05:53:40;;;;;;;939.70;864.38;;;22.60;99.90;;;;;;5022632;28;20053;-67
2023/07/09 05:56:07;;;;;;;918.78;846.05;;;22.70;99.90;;;;;;5021513;28;20029;-68
2023/07/09 05:58:32;;;;;;;932.88;858.63;;;22.70;99.90;;;;;;5018772;28;20038;-67
2023/07/09 06:00:58;;;;;;;936.85;863.10;;;22.70;99.90;;;;;;5021707;28;20516;-68
2023/07/09 06:03:26;;;;;;;923.90;847.50;;;22.70;99.90;;;;;;5021859;28;20073;-68
2023/07/09 06:05:52;;;;;;;948.08;873.60;;;22.70;99.90;;;;;;5025468;28;20079;-68
2023/07/09 06:08:19;;;;;;;1020.03;939.42;;;22.70;99.90;;;;;;5023356;28;20128;-68
2023/07/09 06:10:59;;;;;;;992.00;912.95;;;22.70;99.90;;;;;;5021118;28;20156;-68
2023/07/09 06:13:26;;;;;;;1216.05;908.70;;;22.80;99.90;;;;;;5037888;28;20052;-67
2023/07/09 06:15:54;;;;;;;973.60;896.30;;;22.80;99.90;;;;;;5012970;28;20067;-68
2023/07/09 06:18:21;;;;;;;1005.75;923.38;;;22.90;99.90;;;;;;5022266;28;20037;-68
2023/07/09 06:20:51;;;;;;;985.10;901.78;;;23.10;99.90;;;;;;5022065;28;20406;-68
2023/07/09 06:23:18;;;;;;;1512.88;968.88;;;23.30;99.90;;;;;;5030935;28;20504;-67
2023/07/09 06:25:47;;;;;;;1015.30;924.33;;;23.50;99.90;;;;;;5019884;28;20037;-68
2023/07/09 06:28:18;;;;;;;1753.68;980.20;;;23.80;99.90;;;;;;5022836;28;20045;-68
2023/07/09 06:30:45;;;;;;;1999.90;999.90;;;24.10;99.90;;;;;;5021441;28;20037;-68
2023/07/09 06:33:12;;;;;;;1999.90;999.90;;;24.70;99.90;;;;;;5028535;28;20037;-68
2023/07/09 06:35:39;;;;;;;1999.90;999.90;;;25.40;99.90;;;;;;5018952;28;20038;-68
2023/07/09 06:38:05;;;;;;;1999.90;999.90;;;26.10;99.90;;;;;;5019553;28;20033;-68
2023/07/09 06:40:31;;;;;;;1660.13;999.90;;;26.70;99.90;;;;;;5022619;28;20045;-68
2023/07/09 06:42:57;;;;;;;1999.90;999.90;;;27.00;99.90;;;;;;5020082;28;21817;-68
2023/07/09 06:45:24;;;;;;;1084.88;965.35;;;27.20;99.90;;;;;;5018938;28;20589;-68
2023/07/09 06:47:49;;;;;;;1410.90;998.85;;;27.30;99.90;;;;;;5039225;28;20674;-68
2023/07/09 06:50:15;;;;;;;1072.15;946.13;;;27.40;99.90;;;;;;5013478;28;20045;-68
2023/07/09 06:52:41;;;;;;;933.03;851.92;;;27.60;99.90;;;;;;5022121;28;20048;-68
2023/07/09 06:55:08;;;;;;;1001.25;905.03;;;27.90;99.90;;;;;;5020712;28;20504;-68
2023/07/09 06:57:34;;;;;;;1093.07;955.88;;;28.10;99.90;;;;;;5021962;28;20045;-68
2023/07/09 06:59:59;;;;;;;966.75;878.00;;;28.10;99.90;;;;;;5023987;28;20405;-68
2023/07/09 07:02:25;;;;;;;948.60;862.80;;;28.20;99.90;;;;;;5019010;28;20049;-68
2023/07/09 07:04:51;;;;;;;977.55;885.35;;;28.50;99.90;;;;;;5036622;28;20485;-68
2023/07/09 07:07:16;;;;;;;965.72;877.92;;;29.00;99.90;;;;;;5025895;28;20144;-67
2023/07/09 07:09:42;;;;;;;1003.25;902.78;;;29.60;99.70;;;;;;5020300;28;20076;-68
2023/07/09 07:12:08;;;;;;;921.03;826.30;;;30.10;98.90;;;;;;5021176;28;20041;-68
2023/07/09 07:14:34;;;;;;;789.08;717.28;;;30.40;97.30;;;;;;5019805;28;20045;-68
2023/07/09 07:16:59;;;;;;;739.03;674.50;;;30.50;96.00;;;;;;5036853;28;20140;-68
2023/07/09 07:19:26;;;;;;;634.28;580.67;;;30.40;95.30;;;;;;5037632;28;20105;-67
2023/07/09 07:21:53;;;;;;;1157.32;908.28;;;30.20;95.20;;;;;;5020983;28;20052;-67
2023/07/09 07:24:18;;;;;;;796.28;724.40;;;30.20;95.50;;;;;;5009028;28;20371;-67
2023/07/09 07:26:44;;;;;;;777.38;718.72;;;30.10;95.80;;;;;;5003393;28;20049;-68
2023/07/09 07:29:10;;;;;;;669.20;616.60;;;29.80;95.50;;;;;;5021110;28;20132;-68
2023/07/09 07:31:35;;;;;;;751.05;692.17;;;29.50;95.30;;;;;;5021456;28;20046;-68
2023/07/09 07:34:01;;;;;;;728.00;669.28;;;29.20;95.30;;;;;;5020202;28;20052;-68
2023/07/09 07:36:26;;;;;;;696.47;641.50;;;28.90;95.50;;;;;;5005674;28;20052;-68
2023/07/09 07:38:52;;;;;;;636.85;586.55;;;28.70;96.20;;;;;;5021228;28;20072;-68
2023/07/09 07:41:18;;;;;;;834.08;761.80;;;28.90;96.80;;;;;;5014530;28;20049;-68
2023/07/09 07:43:43;;;;;;;831.47;764.75;;;29.30;96.70;;;;;;5016378;28;20578;-68
2023/07/09 07:46:09;;;;;;;899.83;828.00;;;29.80;96.10;;;;;;5019559;28;20040;-68
2023/07/09 07:48:35;;;;;;;751.22;689.03;;;30.20;95.60;;;;;;5019090;28;20037;-68
2023/07/09 07:51:02;;;;;;;795.10;732.08;;;30.40;95.20;;;;;;5004268;28;20121;-68
2023/07/09 07:53:30;;;;;;;681.08;629.25;;;30.50;95.20;;;;;;5002880;28;20041;-68
2023/07/09 07:55:57;;;;;;;699.25;645.08;;;30.70;94.30;;;;;;5019160;28;20528;-68
2023/07/09 07:58:22;;;;;;;711.08;659.58;;;30.80;93.80;;;;;;5020101;28;20049;-68
2023/07/09 08:00:48;;;;;;;840.60;775.72;;;31.00;93.70;;;;;;5006204;28;20041;-68
2023/07/09 08:03:14;;;;;;;708.72;655.92;;;31.00;93.00;;;;;;5019791;28;20037;-68
2023/07/09 08:05:39;;;;;;;742.97;689.67;;;30.90;93.40;;;;;;5036481;28;20100;-68
2023/07/09 08:08:05;;;;;;;827.30;760.42;;;30.80;93.00;;;;;;5020320;28;20141;-68
2023/07/09 08:10:31;;;;;;;474.45;445.88;;;31.00;93.70;;;;;;5021122;28;20084;-67
2023/07/09 08:12:57;;;;;;;536.10;501.40;;;30.90;92.60;;;;;;5019989;28;20065;-68
2023/07/09 08:15:24;;;;;;;455.10;427.00;;;30.90;92.80;;;;;;5018827;28;20045;-68
2023/07/09 08:17:49;;;;;;;601.33;553.75;;;30.70;92.80;;;;;;5026764;28;20033;-68
2023/07/09 08:20:15;;;;;;;409.50;385.58;;;30.50;93.40;;;;;;5017779;28;20047;-68
2023/07/09 08:22:41;;;;;;;367.55;344.92;;;30.40;92.30;;;;;;5021872;28;20049;-68
2023/07/09 08:25:07;;;;;;;391.35;368.90;;;30.50;92.80;;;;;;5016579;28;20520;-67
2023/07/09 08:27:33;;;;;;;416.88;393.38;;;30.70;93.30;;;;;;5037263;28;20068;-68
2023/07/09 08:29:58;;;;;;;589.33;545.33;;;30.90;92.80;;;;;;5021256;28;20041;-68
2023/07/09 08:32:24;;;;;;;391.40;368.35;;;31.10;93.40;;;;;;5021388;28;20382;-68
2023/07/09 08:34:49;;;;;;;500.65;463.25;;;31.50;92.60;;;;;;5028010;28;20150;-68
2023/07/09 08:37:15;;;;;;;498.70;466.63;;;31.70;92.50;;;;;;5021165;28;20084;-68
2023/07/09 08:39:41;;;;;;;515.78;481.73;;;31.90;91.90;;;;;;5021128;28;20041;-68
2023/07/09 08:42:13;;;;;;;528.95;493.95;;;32.00;91.70;;;;;;5040879;28;20778;-68
2023/07/09 08:45:19;;;;;;;693.08;639.50;;;32.10;91.10;;;;;;5024944;28;20065;-68
2023/07/09 08:48:03;;;;;;;618.97;577.38;;;32.20;90.60;;;;;;5014928;28;20053;-68
2023/07/09 08:50:47;;;;;;;834.03;759.92;;;32.30;90.60;;;;;;5020590;28;20048;-68
2023/07/09 08:53:24;;;;;;;701.22;653.80;;;32.30;90.30;;;;;;5021275;28;20568;-68
2023/07/09 08:55:51;;;;;;;755.38;696.95;;;32.40;90.40;;;;;;5022052;28;20060;-68
2023/07/09 08:58:27;;;;;;;839.80;766.42;;;32.50;90.70;;;;;;5028050;28;20502;-68
2023/07/09 09:01:11;;;;;;;681.42;633.30;;;32.50;90.00;;;;;;5017267;28;20046;-68
2023/07/09 09:03:46;;;;;;;;;;;32.60;90.00;;;;;;5017922;28;20405;-68
2023/07/09 09:06:31;;;;;;;824.17;756.72;;;32.50;90.00;;;;;;5031614;28;19925;-68
2023/07/09 09:09:24;;;;;;;799.60;734.00;;;32.30;88.70;;;;;;5017692;28;20045;-68
2023/07/09 09:12:00;;;;;;;782.70;720.13;;;32.00;89.80;;;;;;5024826;28;20589;-68
2023/07/09 09:14:46;;;;;;;705.75;658.47;;;31.70;90.10;;;;;;5012540;28;20049;-68
2023/07/09 09:17:14;;;;;;;695.95;649.00;;;31.50;90.30;;;;;;5014295;28;20050;-68
2023/07/09 09:19:56;;;;;;;807.13;733.08;;;31.50;90.40;;;;;;5030927;28;22144;-68
2023/07/09 09:22:25;;;;;;;840.22;762.38;;;31.60;91.20;;;;;;5022359;28;20057;-68
2023/07/09 09:25:15;;;;;;;636.65;591.88;;;31.70;91.10;;;;;;5028213;28;20797;-69
2023/07/09 09:27:42;;;;;;;713.20;649.90;;;31.70;90.20;;;;;;5011880;28;20131;-68
2023/07/09 09:30:20;;;;;;;808.88;733.75;;;31.70;90.50;;;;;;5014740;28;20543;-68
2023/07/09 09:32:59;;;;;;;569.65;525.80;;;31.30;90.90;;;;;;5030969;28;20670;-68
2023/07/09 09:35:29;;;;;;;851.05;768.05;;;31.20;91.40;;;;;;5013477;28;20047;-68
2023/07/09 09:37:56;;;;;;;701.25;647.10;;;31.20;92.00;;;;;;5033718;28;20773;-68
2023/07/09 09:40:23;;;;;;;822.42;752.72;;;31.40;92.00;;;;;;5016475;28;20048;-68
2023/07/09 09:42:54;;;;;;;676.38;632.15;;;31.70;91.30;;;;;;5015104;28;20088;-68
2023/07/09 09:45:26;;;;;;;761.47;698.15;;;31.70;90.30;;;;;;5016490;28;20549;-68
2023/07/09 09:47:52;;;;;;;756.40;698.78;;;31.70;91.00;;;;;;5015453;28;20042;-66
2023/07/09 09:50:20;;;;;;;806.03;743.17;;;31.70;90.50;;;;;;5018700;28;20038;-68
2023/07/09 09:52:48;;;;;;;709.33;660.95;;;31.90;91.10;;;;;;5017664;28;20125;-67
2023/07/09 09:55:24;;;;;;;763.30;704.00;;;32.00;91.00;;;;;;5015567;28;20033;-67
2023/07/09 09:57:52;;;;;;;759.75;702.60;;;32.10;90.90;;;;;;5034175;28;20043;-67
2023/07/09 10:00:22;;;;;;;805.58;746.20;;;32.10;90.20;;;;;;5013254;28;20091;-67
2023/07/09 10:02:48;;;;;;;846.45;779.60;;;32.10;90.40;;;;;;5026045;28;20441;-67
2023/07/09 10:05:16;;;;;;;867.40;796.70;;;32.10;90.00;;;;;;5015895;28;20045;-67
2023/07/09 10:08:07;;;;;;;745.72;692.17;;;32.10;88.50;;;;;;5013452;28;20087;-67
2023/07/09 10:10:33;;;;;;;816.75;754.50;;;31.90;89.10;;;;;;5013338;28;20073;-67
2023/07/09 10:13:22;;;;;;;864.45;794.08;;;31.90;90.30;;;;;;5015250;28;20041;-66
2023/07/09 10:16:06;;;;;;;820.80;758.33;;;32.10;90.70;;;;;;5017040;28;20037;-67
2023/07/09 10:18:54;;;;;;;839.63;775.03;;;32.10;90.30;;;;;;5016979;28;20037;-67
2023/07/09 10:21:26;;;;;;;878.50;809.03;;;32.10;89.60;;;;;;5010234;28;20046;-67
2023/07/09 10:24:22;;;;;;;884.92;812.92;;;32.10;88.10;;;;;;5029697;28;20056;-67
2023/07/09 10:27:07;;;;;;;822.50;762.83;;;32.10;88.30;;;;;;5026998;28;20033;-67
2023/07/09 10:29:39;;;;;;;818.78;756.70;;;32.00;89.00;;;;;;5011818;28;20132;-67
2023/07/09 10:32:29;;;;;;;865.15;798.55;;;32.00;87.90;;;;;;5009741;28;20033;-66
2023/07/09 10:35:14;;;;;;;882.08;811.33;;;31.90;89.00;;;;;;5016821;28;20053;-67
2023/07/09 10:37:58;;;;;;;829.13;763.58;;;31.90;90.20;;;;;;5032720;28;20542;-66
2023/07/09 10:40:52;;;;;;;803.47;742.60;;;31.90;90.40;;;;;;5030692;28;20045;-67
2023/07/09 10:43:38;;;;;;;776.22;721.63;;;32.10;89.70;;;;;;5015916;28;20056;-67
2023/07/09 10:46:14;;;;;;;909.80;835.63;;;32.10;90.00;;;;;;5008957;28;20069;-66
2023/07/09 10:48:54;;;;;;;840.35;778.25;;;32.10;89.70;;;;;;5012741;28;20044;-66
2023/07/09 10:51:28;;;;;;;839.72;773.30;;;32.00;90.20;;;;;;5009620;28;20075;-66
2023/07/09 10:54:28;;;;;;;900.83;828.63;;;32.10;90.80;;;;;;5025645;28;20045;-66
2023/07/09 10:57:03;;;;;;;910.85;836.75;;;32.00;91.10;;;;;;5014661;28;20045;-67
2023/07/09 10:59:32;;;;;;;847.72;780.08;;;32.10;90.80;;;;;;5014203;28;20128;-66
2023/07/09 11:02:23;;;;;;;833.13;770.75;;;32.00;90.00;;;;;;5012474;28;20064;-66
2023/07/09 11:05:12;;;;;;;831.35;770.03;;;32.10;90.60;;;;;;5025557;28;20068;-65
2023/07/09 11:08:15;;;;;;;987.92;901.22;;;32.10;89.10;;;;;;5011888;28;20125;-66
2023/07/09 11:10:49;;;;;;;846.60;784.08;;;32.00;87.50;;;;;;5014979;28;20490;-66
2023/07/09 11:13:21;;;;;;;920.78;847.35;;;31.90;89.30;;;;;;5029023;28;20037;-66
2023/07/09 11:15:53;;;;;;;728.03;676.78;;;32.00;86.40;;;;;;4996216;28;20068;-66
2023/07/09 11:18:33;;;;;;;756.22;698.95;;;31.90;87.60;;;;;;5013990;28;20233;-66
2023/07/09 11:21:07;;;;;;;832.33;768.88;;;31.90;88.60;;;;;;5029131;28;20057;-67
2023/07/09 11:23:51;;;;;;;;;;;31.90;85.70;;;;;;5027864;28;23465;-67
2023/07/09 11:26:28;;;;;;;836.85;768.28;;;32.00;85.40;;;;;;5012972;28;19921;-67
2023/07/09 11:29:27;;;;;;;719.10;660.90;;;32.00;84.30;;;;;;5016049;28;20041;-67
2023/07/09 11:31:52;;;;;;;563.67;522.90;;;31.90;84.70;;;;;;4979491;28;20057;-66
2023/07/09 11:34:20;;;;;;;965.33;889.40;;;32.00;85.60;;;;;;5010488;28;20883;-66
2023/07/09 11:36:55;;;;;;;669.17;616.30;;;32.00;83.60;;;;;;5027707;28;20045;-66
2023/07/09 11:39:36;;;;;;;664.38;613.22;;;32.00;84.80;;;;;;5011710;28;20157;-66
2023/07/09 11:42:02;;;;;;;624.13;577.83;;;32.10;85.40;;;;;;5011450;28;20049;-66
2023/07/09 11:44:33;;;;;;;656.03;607.17;;;32.00;85.70;;;;;;5016971;28;20053;-67
2023/07/09 11:47:23;;;;;;;557.40;516.00;;;32.10;84.30;;;;;;5016112;28;20547;-67
2023/07/09 11:50:22;;;;;;;567.92;528.60;;;32.20;85.60;;;;;;5024501;28;20129;-66
2023/07/09 11:53:10;;;;;;;526.88;488.95;;;32.30;85.90;;;;;;5023686;28;20041;-67
2023/07/09 11:55:41;;;;;;;592.90;548.05;;;32.50;85.60;;;;;;5004165;28;20096;-67
2023/07/09 11:58:11;;;;;;;540.35;499.35;;;32.50;83.40;;;;;;5004264;28;20041;-67
2023/07/09 12:00:50;;;;;;;552.50;511.48;;;32.50;85.80;;;;;;5004226;28;20050;-67
2023/07/09 12:03:29;;;;;;;498.20;465.38;;;32.60;86.40;;;;;;5008518;28;20049;-66
2023/07/09 12:05:59;;;;;;;797.03;736.75;;;32.70;87.70;;;;;;5006956;28;20116;-67
2023/07/09 12:08:33;;;;;;;906.03;832.00;;;32.80;85.50;;;;;;5008610;28;20064;-67
2023/07/09 12:10:59;;;;;;;903.63;828.78;;;32.90;83.60;;;;;;5021992;28;20083;-67
2023/07/09 12:13:25;;;;;;;887.25;815.58;;;32.90;82.80;;;;;;5024010;28;20130;-66
2023/07/09 12:15:51;;;;;;;960.92;874.28;;;32.80;82.50;;;;;;5009956;28;20029;-67
2023/07/09 12:18:16;;;;;;;1054.07;954.85;;;32.80;82.60;;;;;;5008671;28;20489;-66